sensor_id;sensor_type;location;lat;lon;timestamp;P1;durP1;ratioP1;P2;durP2;ratioP2
69087;SDS011;56190;43.562;5.036;2023-10-19T00:00:33;11.00;;;3.97;;
69087;SDS011;56190;43.562;5.036;2023-10-19T00:03:01;8.48;;;3.42;;
69087;SDS011;56190;43.562;5.036;2023-10-19T00:05:28;8.32;;;3.75;;
69087;SDS011;56190;43.562;5.036;2023-10-19T00:07:54;9.38;;;3.50;;
69087;SDS011;56190;43.562;5.036;2023-10-19T00:10:22;8.32;;;3.67;;
69087;SDS011;56190;43.562;5.036;2023-10-19T00:12:47;10.18;;;3.65;;
69087;SDS011;56190;43.562;5.036;2023-10-19T00:15:22;9.23;;;4.10;;
69087;SDS011;56190;43.562;5.036;2023-10-19T00:17:49;8.38;;;3.80;;
69087;SDS011;56190;43.562;5.036;2023-10-19T00:20:18;6.60;;;3.15;;
69087;SDS011;56190;43.562;5.036;2023-10-19T00:23:01;6.88;;;3.45;;
69087;SDS011;56190;43.562;5.036;2023-10-19T00:25:30;12.38;;;3.60;;
69087;SDS011;56190;43.562;5.036;2023-10-19T00:27:57;6.13;;;3.20;;
69087;SDS011;56190;43.562;5.036;2023-10-19T00:30:25;10.57;;;3.58;;
69087;SDS011;56190;43.562;5.036;2023-10-19T00:32:55;8.98;;;3.50;;
69087;SDS011;56190;43.562;5.036;2023-10-19T00:35:21;7.65;;;3.63;;
69087;SDS011;56190;43.562;5.036;2023-10-19T00:37:53;6.97;;;3.33;;
69087;SDS011;56190;43.562;5.036;2023-10-19T00:40:21;6.55;;;3.40;;
69087;SDS011;56190;43.562;5.036;2023-10-19T00:43:02;8.07;;;3.90;;
69087;SDS011;56190;43.562;5.036;2023-10-19T00:45:28;8.73;;;3.60;;
69087;SDS011;56190;43.562;5.036;2023-10-19T00:47:53;11.93;;;3.85;;
69087;SDS011;56190;43.562;5.036;2023-10-19T00:50:19;10.02;;;3.83;;
69087;SDS011;56190;43.562;5.036;2023-10-19T00:52:47;9.60;;;3.78;;
69087;SDS011;56190;43.562;5.036;2023-10-19T00:55:15;7.32;;;2.95;;
69087;SDS011;56190;43.562;5.036;2023-10-19T00:57:40;10.05;;;4.00;;
69087;SDS011;56190;43.562;5.036;2023-10-19T01:00:11;7.32;;;4.10;;
69087;SDS011;56190;43.562;5.036;2023-10-19T01:02:37;7.60;;;3.30;;
69087;SDS011;56190;43.562;5.036;2023-10-19T01:05:08;8.52;;;3.97;;
69087;SDS011;56190;43.562;5.036;2023-10-19T01:07:38;8.80;;;3.58;;
69087;SDS011;56190;43.562;5.036;2023-10-19T01:10:04;7.95;;;3.75;;
69087;SDS011;56190;43.562;5.036;2023-10-19T01:12:30;9.88;;;3.92;;
69087;SDS011;56190;43.562;5.036;2023-10-19T01:17:37;7.45;;;3.30;;
69087;SDS011;56190;43.562;5.036;2023-10-19T01:22:42;9.13;;;3.55;;
69087;SDS011;56190;43.562;5.036;2023-10-19T01:25:07;9.40;;;3.55;;
69087;SDS011;56190;43.562;5.036;2023-10-19T01:27:36;10.45;;;3.90;;
69087;SDS011;56190;43.562;5.036;2023-10-19T01:30:02;8.95;;;3.22;;
69087;SDS011;56190;43.562;5.036;2023-10-19T01:32:29;11.48;;;3.65;;
69087;SDS011;56190;43.562;5.036;2023-10-19T01:34:55;7.82;;;3.90;;
69087;SDS011;56190;43.562;5.036;2023-10-19T01:37:20;6.72;;;3.35;;
69087;SDS011;56190;43.562;5.036;2023-10-19T01:39:45;10.30;;;3.63;;
69087;SDS011;56190;43.562;5.036;2023-10-19T01:42:11;8.65;;;4.07;;
69087;SDS011;56190;43.562;5.036;2023-10-19T01:44:37;10.05;;;3.65;;
69087;SDS011;56190;43.562;5.036;2023-10-19T01:47:02;7.18;;;3.78;;
69087;SDS011;56190;43.562;5.036;2023-10-19T01:49:30;8.30;;;3.53;;
69087;SDS011;56190;43.562;5.036;2023-10-19T01:51:56;9.65;;;4.03;;
69087;SDS011;56190;43.562;5.036;2023-10-19T01:54:22;6.65;;;3.53;;
69087;SDS011;56190;43.562;5.036;2023-10-19T01:56:51;9.00;;;3.80;;
69087;SDS011;56190;43.562;5.036;2023-10-19T01:59:19;13.80;;;4.55;;
69087;SDS011;56190;43.562;5.036;2023-10-19T02:01:44;8.57;;;3.90;;
69087;SDS011;56190;43.562;5.036;2023-10-19T02:04:14;7.43;;;3.47;;
69087;SDS011;56190;43.562;5.036;2023-10-19T02:06:39;8.63;;;3.53;;
69087;SDS011;56190;43.562;5.036;2023-10-19T02:09:11;9.30;;;4.03;;
69087;SDS011;56190;43.562;5.036;2023-10-19T02:11:40;9.15;;;3.72;;
69087;SDS011;56190;43.562;5.036;2023-10-19T02:14:10;6.82;;;3.25;;
69087;SDS011;56190;43.562;5.036;2023-10-19T02:16:44;6.82;;;3.70;;
69087;SDS011;56190;43.562;5.036;2023-10-19T02:19:12;8.15;;;4.03;;
69087;SDS011;56190;43.562;5.036;2023-10-19T02:21:37;9.38;;;3.83;;
69087;SDS011;56190;43.562;5.036;2023-10-19T02:24:08;6.57;;;3.25;;
69087;SDS011;56190;43.562;5.036;2023-10-19T02:26:34;7.35;;;3.17;;
69087;SDS011;56190;43.562;5.036;2023-10-19T02:29:02;10.15;;;3.40;;
69087;SDS011;56190;43.562;5.036;2023-10-19T02:31:33;9.25;;;3.58;;
69087;SDS011;56190;43.562;5.036;2023-10-19T02:33:58;8.10;;;3.42;;
69087;SDS011;56190;43.562;5.036;2023-10-19T02:36:24;8.00;;;3.35;;
69087;SDS011;56190;43.562;5.036;2023-10-19T02:38:53;5.78;;;3.30;;
69087;SDS011;56190;43.562;5.036;2023-10-19T02:41:18;9.15;;;3.67;;
69087;SDS011;56190;43.562;5.036;2023-10-19T02:43:45;7.13;;;3.28;;
69087;SDS011;56190;43.562;5.036;2023-10-19T02:46:26;7.38;;;3.53;;
69087;SDS011;56190;43.562;5.036;2023-10-19T02:48:51;8.73;;;3.58;;
69087;SDS011;56190;43.562;5.036;2023-10-19T02:51:16;7.82;;;3.58;;
69087;SDS011;56190;43.562;5.036;2023-10-19T02:53:44;7.68;;;3.70;;
69087;SDS011;56190;43.562;5.036;2023-10-19T02:56:10;9.05;;;3.72;;
69087;SDS011;56190;43.562;5.036;2023-10-19T02:58:36;7.75;;;3.22;;
69087;SDS011;56190;43.562;5.036;2023-10-19T03:01:01;7.97;;;3.80;;
69087;SDS011;56190;43.562;5.036;2023-10-19T03:03:27;8.23;;;3.67;;
69087;SDS011;56190;43.562;5.036;2023-10-19T03:05:55;8.63;;;3.55;;
69087;SDS011;56190;43.562;5.036;2023-10-19T03:08:21;8.55;;;3.50;;
69087;SDS011;56190;43.562;5.036;2023-10-19T03:10:46;8.70;;;3.53;;
69087;SDS011;56190;43.562;5.036;2023-10-19T03:13:11;7.53;;;3.50;;
69087;SDS011;56190;43.562;5.036;2023-10-19T03:15:40;8.18;;;3.55;;
69087;SDS011;56190;43.562;5.036;2023-10-19T03:18:07;9.77;;;3.30;;
69087;SDS011;56190;43.562;5.036;2023-10-19T03:20:33;7.65;;;3.17;;
69087;SDS011;56190;43.562;5.036;2023-10-19T03:22:58;8.00;;;3.40;;
69087;SDS011;56190;43.562;5.036;2023-10-19T03:25:26;7.40;;;3.17;;
69087;SDS011;56190;43.562;5.036;2023-10-19T03:28:14;7.38;;;3.30;;
69087;SDS011;56190;43.562;5.036;2023-10-19T03:30:41;7.70;;;3.80;;
69087;SDS011;56190;43.562;5.036;2023-10-19T03:33:07;8.73;;;3.63;;
69087;SDS011;56190;43.562;5.036;2023-10-19T03:35:37;8.00;;;3.55;;
69087;SDS011;56190;43.562;5.036;2023-10-19T03:38:03;8.85;;;4.68;;
69087;SDS011;56190;43.562;5.036;2023-10-19T03:40:34;6.65;;;2.85;;
69087;SDS011;56190;43.562;5.036;2023-10-19T03:43:03;7.97;;;3.10;;
69087;SDS011;56190;43.562;5.036;2023-10-19T03:45:39;9.65;;;3.15;;
69087;SDS011;56190;43.562;5.036;2023-10-19T03:48:09;7.40;;;3.30;;
69087;SDS011;56190;43.562;5.036;2023-10-19T03:50:35;8.85;;;3.47;;
69087;SDS011;56190;43.562;5.036;2023-10-19T03:53:01;9.50;;;3.88;;
69087;SDS011;56190;43.562;5.036;2023-10-19T03:55:27;6.03;;;3.30;;
69087;SDS011;56190;43.562;5.036;2023-10-19T03:57:54;7.65;;;3.08;;
69087;SDS011;56190;43.562;5.036;2023-10-19T04:00:22;9.20;;;3.78;;
69087;SDS011;56190;43.562;5.036;2023-10-19T04:02:53;10.00;;;3.60;;
69087;SDS011;56190;43.562;5.036;2023-10-19T04:05:23;7.70;;;3.50;;
69087;SDS011;56190;43.562;5.036;2023-10-19T04:07:50;7.47;;;3.10;;
69087;SDS011;56190;43.562;5.036;2023-10-19T04:10:22;6.55;;;3.33;;
69087;SDS011;56190;43.562;5.036;2023-10-19T04:13:00;7.78;;;3.70;;
69087;SDS011;56190;43.562;5.036;2023-10-19T04:15:26;6.75;;;3.00;;
69087;SDS011;56190;43.562;5.036;2023-10-19T04:17:51;8.57;;;3.40;;
69087;SDS011;56190;43.562;5.036;2023-10-19T04:20:18;7.03;;;3.13;;
69087;SDS011;56190;43.562;5.036;2023-10-19T04:22:44;8.45;;;3.17;;
69087;SDS011;56190;43.562;5.036;2023-10-19T04:25:09;5.45;;;3.15;;
69087;SDS011;56190;43.562;5.036;2023-10-19T04:27:38;8.48;;;3.40;;
69087;SDS011;56190;43.562;5.036;2023-10-19T04:30:03;11.75;;;3.47;;
69087;SDS011;56190;43.562;5.036;2023-10-19T04:32:28;5.40;;;2.90;;
69087;SDS011;56190;43.562;5.036;2023-10-19T04:34:53;9.00;;;3.50;;
69087;SDS011;56190;43.562;5.036;2023-10-19T04:37:19;6.97;;;3.33;;
69087;SDS011;56190;43.562;5.036;2023-10-19T04:39:45;7.82;;;3.08;;
69087;SDS011;56190;43.562;5.036;2023-10-19T04:42:10;5.80;;;3.40;;
69087;SDS011;56190;43.562;5.036;2023-10-19T04:44:35;8.25;;;3.17;;
69087;SDS011;56190;43.562;5.036;2023-10-19T04:47:00;8.07;;;3.40;;
69087;SDS011;56190;43.562;5.036;2023-10-19T04:49:26;5.25;;;3.05;;
69087;SDS011;56190;43.562;5.036;2023-10-19T04:51:51;7.55;;;3.35;;
69087;SDS011;56190;43.562;5.036;2023-10-19T04:54:16;7.38;;;2.75;;
69087;SDS011;56190;43.562;5.036;2023-10-19T04:56:42;8.13;;;3.45;;
69087;SDS011;56190;43.562;5.036;2023-10-19T04:59:07;9.10;;;3.42;;
69087;SDS011;56190;43.562;5.036;2023-10-19T05:01:32;9.35;;;3.35;;
69087;SDS011;56190;43.562;5.036;2023-10-19T05:03:59;7.10;;;2.90;;
69087;SDS011;56190;43.562;5.036;2023-10-19T05:06:24;7.90;;;3.47;;
69087;SDS011;56190;43.562;5.036;2023-10-19T05:08:49;9.60;;;3.40;;
69087;SDS011;56190;43.562;5.036;2023-10-19T05:11:14;7.18;;;3.30;;
69087;SDS011;56190;43.562;5.036;2023-10-19T05:13:39;6.68;;;3.33;;
69087;SDS011;56190;43.562;5.036;2023-10-19T05:16:05;9.50;;;3.40;;
69087;SDS011;56190;43.562;5.036;2023-10-19T05:18:30;7.05;;;3.28;;
69087;SDS011;56190;43.562;5.036;2023-10-19T05:20:55;8.63;;;3.33;;
69087;SDS011;56190;43.562;5.036;2023-10-19T05:23:24;9.27;;;3.72;;
69087;SDS011;56190;43.562;5.036;2023-10-19T05:25:52;5.03;;;2.58;;
69087;SDS011;56190;43.562;5.036;2023-10-19T05:28:18;7.72;;;3.42;;
69087;SDS011;56190;43.562;5.036;2023-10-19T05:30:44;8.63;;;3.30;;
69087;SDS011;56190;43.562;5.036;2023-10-19T05:33:09;8.65;;;3.80;;
69087;SDS011;56190;43.562;5.036;2023-10-19T05:35:34;7.20;;;3.30;;
69087;SDS011;56190;43.562;5.036;2023-10-19T05:38:05;6.65;;;3.17;;
69087;SDS011;56190;43.562;5.036;2023-10-19T05:40:30;5.75;;;3.22;;
69087;SDS011;56190;43.562;5.036;2023-10-19T05:42:56;9.45;;;3.17;;
69087;SDS011;56190;43.562;5.036;2023-10-19T05:45:22;7.80;;;3.65;;
69087;SDS011;56190;43.562;5.036;2023-10-19T05:47:47;9.13;;;4.00;;
69087;SDS011;56190;43.562;5.036;2023-10-19T05:50:13;8.77;;;3.65;;
69087;SDS011;56190;43.562;5.036;2023-10-19T05:52:40;8.23;;;3.60;;
69087;SDS011;56190;43.562;5.036;2023-10-19T05:55:06;11.90;;;3.20;;
69087;SDS011;56190;43.562;5.036;2023-10-19T05:57:31;8.88;;;3.63;;
69087;SDS011;56190;43.562;5.036;2023-10-19T05:59:56;8.63;;;3.28;;
69087;SDS011;56190;43.562;5.036;2023-10-19T06:02:22;8.48;;;3.75;;
69087;SDS011;56190;43.562;5.036;2023-10-19T06:04:47;7.97;;;3.60;;
69087;SDS011;56190;43.562;5.036;2023-10-19T06:07:12;7.93;;;3.38;;
69087;SDS011;56190;43.562;5.036;2023-10-19T06:09:38;6.55;;;3.20;;
69087;SDS011;56190;43.562;5.036;2023-10-19T06:12:04;8.98;;;3.67;;
69087;SDS011;56190;43.562;5.036;2023-10-19T06:14:29;9.63;;;3.53;;
69087;SDS011;56190;43.562;5.036;2023-10-19T06:16:55;9.00;;;3.47;;
69087;SDS011;56190;43.562;5.036;2023-10-19T06:19:21;7.47;;;3.83;;
69087;SDS011;56190;43.562;5.036;2023-10-19T06:21:47;8.63;;;3.35;;
69087;SDS011;56190;43.562;5.036;2023-10-19T06:24:12;9.20;;;3.75;;
69087;SDS011;56190;43.562;5.036;2023-10-19T06:26:41;10.98;;;3.38;;
69087;SDS011;56190;43.562;5.036;2023-10-19T06:29:06;12.52;;;3.75;;
69087;SDS011;56190;43.562;5.036;2023-10-19T06:31:31;11.35;;;3.97;;
69087;SDS011;56190;43.562;5.036;2023-10-19T06:33:56;11.65;;;4.18;;
69087;SDS011;56190;43.562;5.036;2023-10-19T06:36:22;8.02;;;3.58;;
69087;SDS011;56190;43.562;5.036;2023-10-19T06:38:47;8.52;;;3.63;;
69087;SDS011;56190;43.562;5.036;2023-10-19T06:41:16;11.60;;;4.13;;
69087;SDS011;56190;43.562;5.036;2023-10-19T06:43:43;12.45;;;3.72;;
69087;SDS011;56190;43.562;5.036;2023-10-19T06:46:08;10.30;;;3.35;;
69087;SDS011;56190;43.562;5.036;2023-10-19T06:48:36;10.85;;;3.72;;
69087;SDS011;56190;43.562;5.036;2023-10-19T06:51:01;8.75;;;3.90;;
69087;SDS011;56190;43.562;5.036;2023-10-19T06:53:27;10.13;;;3.60;;
69087;SDS011;56190;43.562;5.036;2023-10-19T06:55:52;10.30;;;3.78;;
69087;SDS011;56190;43.562;5.036;2023-10-19T06:58:18;10.68;;;3.60;;
69087;SDS011;56190;43.562;5.036;2023-10-19T07:00:45;10.18;;;3.60;;
69087;SDS011;56190;43.562;5.036;2023-10-19T07:03:10;10.48;;;3.70;;
69087;SDS011;56190;43.562;5.036;2023-10-19T07:05:36;11.25;;;3.60;;
69087;SDS011;56190;43.562;5.036;2023-10-19T07:08:01;12.25;;;4.35;;
69087;SDS011;56190;43.562;5.036;2023-10-19T07:10:27;10.25;;;3.42;;
69087;SDS011;56190;43.562;5.036;2023-10-19T07:12:54;13.48;;;4.20;;
69087;SDS011;56190;43.562;5.036;2023-10-19T07:15:20;12.48;;;4.05;;
69087;SDS011;56190;43.562;5.036;2023-10-19T07:17:47;8.70;;;3.95;;
69087;SDS011;56190;43.562;5.036;2023-10-19T07:20:13;11.55;;;3.70;;
69087;SDS011;56190;43.562;5.036;2023-10-19T07:22:53;13.45;;;4.20;;
69087;SDS011;56190;43.562;5.036;2023-10-19T07:25:20;14.68;;;4.05;;
69087;SDS011;56190;43.562;5.036;2023-10-19T07:27:46;16.20;;;3.83;;
69087;SDS011;56190;43.562;5.036;2023-10-19T07:30:12;11.43;;;3.40;;
69087;SDS011;56190;43.562;5.036;2023-10-19T07:32:40;12.13;;;3.22;;
69087;SDS011;56190;43.562;5.036;2023-10-19T07:35:05;10.43;;;3.60;;
69087;SDS011;56190;43.562;5.036;2023-10-19T07:37:31;13.18;;;3.85;;
69087;SDS011;56190;43.562;5.036;2023-10-19T07:39:56;13.80;;;4.35;;
69087;SDS011;56190;43.562;5.036;2023-10-19T07:42:22;9.70;;;3.58;;
69087;SDS011;56190;43.562;5.036;2023-10-19T07:44:48;11.00;;;3.80;;
69087;SDS011;56190;43.562;5.036;2023-10-19T07:47:14;10.25;;;3.92;;
69087;SDS011;56190;43.562;5.036;2023-10-19T07:49:39;8.15;;;3.33;;
69087;SDS011;56190;43.562;5.036;2023-10-19T07:52:05;10.85;;;3.70;;
69087;SDS011;56190;43.562;5.036;2023-10-19T07:54:32;12.50;;;3.80;;
69087;SDS011;56190;43.562;5.036;2023-10-19T07:56:57;9.88;;;3.70;;
69087;SDS011;56190;43.562;5.036;2023-10-19T07:59:22;15.57;;;4.00;;
69087;SDS011;56190;43.562;5.036;2023-10-19T08:01:47;12.57;;;3.50;;
69087;SDS011;56190;43.562;5.036;2023-10-19T08:04:13;14.88;;;3.70;;
69087;SDS011;56190;43.562;5.036;2023-10-19T08:06:38;16.50;;;4.22;;
69087;SDS011;56190;43.562;5.036;2023-10-19T08:09:03;15.98;;;4.30;;
69087;SDS011;56190;43.562;5.036;2023-10-19T08:11:30;14.02;;;3.85;;
69087;SDS011;56190;43.562;5.036;2023-10-19T08:13:56;17.40;;;4.38;;
69087;SDS011;56190;43.562;5.036;2023-10-19T08:16:21;13.85;;;3.75;;
69087;SDS011;56190;43.562;5.036;2023-10-19T08:18:47;15.77;;;3.88;;
69087;SDS011;56190;43.562;5.036;2023-10-19T08:21:13;13.43;;;3.97;;
69087;SDS011;56190;43.562;5.036;2023-10-19T08:23:39;12.57;;;3.42;;
69087;SDS011;56190;43.562;5.036;2023-10-19T08:26:05;18.23;;;4.07;;
69087;SDS011;56190;43.562;5.036;2023-10-19T08:28:31;12.48;;;4.22;;
69087;SDS011;56190;43.562;5.036;2023-10-19T08:30:57;17.73;;;4.13;;
69087;SDS011;56190;43.562;5.036;2023-10-19T08:33:26;16.08;;;3.80;;
69087;SDS011;56190;43.562;5.036;2023-10-19T08:35:54;15.00;;;3.88;;
69087;SDS011;56190;43.562;5.036;2023-10-19T08:38:20;14.15;;;3.90;;
69087;SDS011;56190;43.562;5.036;2023-10-19T08:40:47;15.95;;;3.45;;
69087;SDS011;56190;43.562;5.036;2023-10-19T08:43:12;12.73;;;3.88;;
69087;SDS011;56190;43.562;5.036;2023-10-19T08:45:43;16.05;;;3.65;;
69087;SDS011;56190;43.562;5.036;2023-10-19T08:48:08;11.18;;;3.38;;
69087;SDS011;56190;43.562;5.036;2023-10-19T08:50:34;13.48;;;3.60;;
69087;SDS011;56190;43.562;5.036;2023-10-19T08:53:00;14.95;;;3.80;;
69087;SDS011;56190;43.562;5.036;2023-10-19T08:55:26;15.00;;;3.65;;
69087;SDS011;56190;43.562;5.036;2023-10-19T08:57:52;17.52;;;4.30;;
69087;SDS011;56190;43.562;5.036;2023-10-19T09:00:18;16.63;;;3.78;;
69087;SDS011;56190;43.562;5.036;2023-10-19T09:02:46;22.73;;;4.38;;
69087;SDS011;56190;43.562;5.036;2023-10-19T09:05:11;13.73;;;3.63;;
69087;SDS011;56190;43.562;5.036;2023-10-19T09:07:51;15.80;;;3.60;;
69087;SDS011;56190;43.562;5.036;2023-10-19T09:10:23;16.05;;;3.55;;
69087;SDS011;56190;43.562;5.036;2023-10-19T09:13:06;17.17;;;4.20;;
69087;SDS011;56190;43.562;5.036;2023-10-19T09:15:35;15.70;;;3.53;;
69087;SDS011;56190;43.562;5.036;2023-10-19T09:18:19;16.02;;;3.63;;
69087;SDS011;56190;43.562;5.036;2023-10-19T09:20:48;19.13;;;3.67;;
69087;SDS011;56190;43.562;5.036;2023-10-19T09:23:27;14.85;;;3.65;;
69087;SDS011;56190;43.562;5.036;2023-10-19T09:25:55;22.10;;;5.10;;
69087;SDS011;56190;43.562;5.036;2023-10-19T09:28:21;14.65;;;4.10;;
69087;SDS011;56190;43.562;5.036;2023-10-19T09:30:47;18.17;;;4.90;;
69087;SDS011;56190;43.562;5.036;2023-10-19T09:33:13;20.75;;;4.78;;
69087;SDS011;56190;43.562;5.036;2023-10-19T09:35:42;14.82;;;3.75;;
69087;SDS011;56190;43.562;5.036;2023-10-19T09:38:08;15.23;;;3.90;;
69087;SDS011;56190;43.562;5.036;2023-10-19T09:40:34;15.13;;;3.72;;
69087;SDS011;56190;43.562;5.036;2023-10-19T09:42:59;19.73;;;4.20;;
69087;SDS011;56190;43.562;5.036;2023-10-19T09:45:29;21.20;;;4.03;;
69087;SDS011;56190;43.562;5.036;2023-10-19T09:47:55;19.27;;;4.10;;
69087;SDS011;56190;43.562;5.036;2023-10-19T09:50:21;18.58;;;3.75;;
69087;SDS011;56190;43.562;5.036;2023-10-19T09:52:46;16.83;;;3.75;;
69087;SDS011;56190;43.562;5.036;2023-10-19T09:55:22;16.05;;;3.95;;
69087;SDS011;56190;43.562;5.036;2023-10-19T09:57:53;19.33;;;4.78;;
69087;SDS011;56190;43.562;5.036;2023-10-19T10:00:19;22.42;;;4.18;;
69087;SDS011;56190;43.562;5.036;2023-10-19T10:02:53;16.40;;;3.78;;
69087;SDS011;56190;43.562;5.036;2023-10-19T10:10:41;17.58;;;4.07;;
69087;SDS011;56190;43.562;5.036;2023-10-19T10:15:57;12.85;;;2.90;;
69087;SDS011;56190;43.562;5.036;2023-10-19T10:18:26;13.63;;;3.42;;
69087;SDS011;56190;43.562;5.036;2023-10-19T10:21:07;15.48;;;3.42;;
69087;SDS011;56190;43.562;5.036;2023-10-19T10:23:45;19.85;;;3.78;;
69087;SDS011;56190;43.562;5.036;2023-10-19T10:26:12;14.80;;;3.83;;
69087;SDS011;56190;43.562;5.036;2023-10-19T10:28:39;17.73;;;3.85;;
69087;SDS011;56190;43.562;5.036;2023-10-19T10:31:11;15.05;;;3.60;;
69087;SDS011;56190;43.562;5.036;2023-10-19T10:33:41;13.35;;;3.47;;
69087;SDS011;56190;43.562;5.036;2023-10-19T10:36:07;17.95;;;3.78;;
69087;SDS011;56190;43.562;5.036;2023-10-19T10:38:33;16.10;;;3.22;;
69087;SDS011;56190;43.562;5.036;2023-10-19T10:40:59;12.10;;;3.30;;
69087;SDS011;56190;43.562;5.036;2023-10-19T10:43:25;19.40;;;3.35;;
69087;SDS011;56190;43.562;5.036;2023-10-19T10:45:50;14.25;;;3.72;;
69087;SDS011;56190;43.562;5.036;2023-10-19T10:48:16;15.90;;;3.33;;
69087;SDS011;56190;43.562;5.036;2023-10-19T10:50:42;15.43;;;3.05;;
69087;SDS011;56190;43.562;5.036;2023-10-19T10:53:08;17.30;;;3.58;;
69087;SDS011;56190;43.562;5.036;2023-10-19T10:55:33;14.07;;;3.03;;
69087;SDS011;56190;43.562;5.036;2023-10-19T10:57:58;11.88;;;2.95;;
69087;SDS011;56190;43.562;5.036;2023-10-19T11:00:24;14.98;;;2.92;;
69087;SDS011;56190;43.562;5.036;2023-10-19T11:03:01;16.08;;;3.42;;
69087;SDS011;56190;43.562;5.036;2023-10-19T11:05:28;16.45;;;3.60;;
69087;SDS011;56190;43.562;5.036;2023-10-19T11:08:07;15.13;;;3.42;;
69087;SDS011;56190;43.562;5.036;2023-10-19T11:10:33;14.18;;;3.70;;
69087;SDS011;56190;43.562;5.036;2023-10-19T11:13:05;14.80;;;3.90;;
69087;SDS011;56190;43.562;5.036;2023-10-19T11:15:31;17.50;;;3.40;;
69087;SDS011;56190;43.562;5.036;2023-10-19T11:17:56;15.10;;;3.30;;
69087;SDS011;56190;43.562;5.036;2023-10-19T11:20:23;13.48;;;2.88;;
69087;SDS011;56190;43.562;5.036;2023-10-19T11:22:49;12.35;;;2.85;;
69087;SDS011;56190;43.562;5.036;2023-10-19T11:25:21;16.00;;;3.40;;
69087;SDS011;56190;43.562;5.036;2023-10-19T11:27:46;17.80;;;3.25;;
69087;SDS011;56190;43.562;5.036;2023-10-19T11:30:22;14.80;;;3.03;;
69087;SDS011;56190;43.562;5.036;2023-10-19T11:32:47;13.40;;;2.78;;
69087;SDS011;56190;43.562;5.036;2023-10-19T11:35:12;14.05;;;3.22;;
69087;SDS011;56190;43.562;5.036;2023-10-19T11:40:12;17.88;;;3.38;;
69087;SDS011;56190;43.562;5.036;2023-10-19T11:42:37;14.10;;;3.05;;
69087;SDS011;56190;43.562;5.036;2023-10-19T11:45:03;18.35;;;4.35;;
69087;SDS011;56190;43.562;5.036;2023-10-19T11:47:28;14.73;;;3.55;;
69087;SDS011;56190;43.562;5.036;2023-10-19T11:49:54;15.30;;;3.42;;
69087;SDS011;56190;43.562;5.036;2023-10-19T11:52:19;14.65;;;3.65;;
69087;SDS011;56190;43.562;5.036;2023-10-19T11:54:44;14.77;;;3.22;;
69087;SDS011;56190;43.562;5.036;2023-10-19T11:57:09;16.10;;;3.50;;
69087;SDS011;56190;43.562;5.036;2023-10-19T11:59:35;15.68;;;3.08;;
69087;SDS011;56190;43.562;5.036;2023-10-19T12:02:00;12.13;;;3.50;;
69087;SDS011;56190;43.562;5.036;2023-10-19T12:04:28;15.10;;;3.40;;
69087;SDS011;56190;43.562;5.036;2023-10-19T12:06:54;17.60;;;3.10;;
69087;SDS011;56190;43.562;5.036;2023-10-19T12:09:20;17.17;;;3.60;;
69087;SDS011;56190;43.562;5.036;2023-10-19T12:11:49;19.85;;;3.90;;
69087;SDS011;56190;43.562;5.036;2023-10-19T12:14:14;19.55;;;3.80;;
69087;SDS011;56190;43.562;5.036;2023-10-19T12:16:40;18.65;;;3.55;;
69087;SDS011;56190;43.562;5.036;2023-10-19T12:19:05;16.67;;;4.10;;
69087;SDS011;56190;43.562;5.036;2023-10-19T12:21:30;20.08;;;4.25;;
69087;SDS011;56190;43.562;5.036;2023-10-19T12:23:56;18.58;;;3.75;;
69087;SDS011;56190;43.562;5.036;2023-10-19T12:26:21;21.00;;;3.33;;
69087;SDS011;56190;43.562;5.036;2023-10-19T12:28:47;21.23;;;4.13;;
69087;SDS011;56190;43.562;5.036;2023-10-19T12:31:14;20.30;;;4.15;;
69087;SDS011;56190;43.562;5.036;2023-10-19T12:33:39;24.52;;;4.63;;
69087;SDS011;56190;43.562;5.036;2023-10-19T12:36:06;21.77;;;5.00;;
69087;SDS011;56190;43.562;5.036;2023-10-19T12:38:50;21.60;;;4.18;;
69087;SDS011;56190;43.562;5.036;2023-10-19T12:41:17;17.30;;;4.25;;
69087;SDS011;56190;43.562;5.036;2023-10-19T12:43:43;16.00;;;3.83;;
69087;SDS011;56190;43.562;5.036;2023-10-19T12:46:08;23.20;;;4.05;;
69087;SDS011;56190;43.562;5.036;2023-10-19T12:48:34;21.20;;;4.35;;
69087;SDS011;56190;43.562;5.036;2023-10-19T12:51:00;17.13;;;3.63;;
69087;SDS011;56190;43.562;5.036;2023-10-19T12:53:27;16.05;;;3.92;;
69087;SDS011;56190;43.562;5.036;2023-10-19T12:55:52;21.20;;;3.85;;
69087;SDS011;56190;43.562;5.036;2023-10-19T12:58:17;20.80;;;4.18;;
69087;SDS011;56190;43.562;5.036;2023-10-19T13:00:44;17.80;;;3.55;;
69087;SDS011;56190;43.562;5.036;2023-10-19T13:03:10;20.35;;;4.20;;
69087;SDS011;56190;43.562;5.036;2023-10-19T13:05:39;23.48;;;4.22;;
69087;SDS011;56190;43.562;5.036;2023-10-19T13:08:05;20.08;;;4.00;;
69087;SDS011;56190;43.562;5.036;2023-10-19T13:10:31;18.40;;;4.07;;
69087;SDS011;56190;43.562;5.036;2023-10-19T13:12:58;18.77;;;4.07;;
69087;SDS011;56190;43.562;5.036;2023-10-19T13:15:23;19.73;;;4.18;;
69087;SDS011;56190;43.562;5.036;2023-10-19T13:17:53;20.50;;;4.43;;
69087;SDS011;56190;43.562;5.036;2023-10-19T13:20:18;21.88;;;4.35;;
69087;SDS011;56190;43.562;5.036;2023-10-19T13:22:44;19.45;;;3.88;;
69087;SDS011;56190;43.562;5.036;2023-10-19T13:25:09;21.08;;;4.53;;
69087;SDS011;56190;43.562;5.036;2023-10-19T13:27:38;23.10;;;4.40;;
69087;SDS011;56190;43.562;5.036;2023-10-19T13:30:03;12.82;;;4.05;;
69087;SDS011;56190;43.562;5.036;2023-10-19T13:32:28;21.52;;;4.50;;
69087;SDS011;56190;43.562;5.036;2023-10-19T13:34:54;21.80;;;4.10;;
69087;SDS011;56190;43.562;5.036;2023-10-19T13:37:20;24.17;;;5.20;;
69087;SDS011;56190;43.562;5.036;2023-10-19T13:39:45;21.95;;;4.03;;
69087;SDS011;56190;43.562;5.036;2023-10-19T13:42:11;18.77;;;3.85;;
69087;SDS011;56190;43.562;5.036;2023-10-19T13:44:36;23.30;;;4.53;;
69087;SDS011;56190;43.562;5.036;2023-10-19T13:47:02;24.48;;;4.43;;
69087;SDS011;56190;43.562;5.036;2023-10-19T13:49:30;21.42;;;4.07;;
69087;SDS011;56190;43.562;5.036;2023-10-19T13:51:55;18.85;;;4.05;;
69087;SDS011;56190;43.562;5.036;2023-10-19T13:54:20;16.23;;;3.88;;
69087;SDS011;56190;43.562;5.036;2023-10-19T13:56:45;22.05;;;3.92;;
69087;SDS011;56190;43.562;5.036;2023-10-19T13:59:11;19.40;;;4.20;;
69087;SDS011;56190;43.562;5.036;2023-10-19T14:01:37;26.80;;;4.28;;
69087;SDS011;56190;43.562;5.036;2023-10-19T14:04:03;19.38;;;4.65;;
69087;SDS011;56190;43.562;5.036;2023-10-19T14:06:28;29.35;;;4.47;;
69087;SDS011;56190;43.562;5.036;2023-10-19T14:08:53;21.90;;;5.07;;
69087;SDS011;56190;43.562;5.036;2023-10-19T14:11:19;18.52;;;4.10;;
69087;SDS011;56190;43.562;5.036;2023-10-19T14:13:46;26.02;;;4.35;;
69087;SDS011;56190;43.562;5.036;2023-10-19T14:16:12;22.65;;;4.22;;
69087;SDS011;56190;43.562;5.036;2023-10-19T14:18:37;20.55;;;4.13;;
69087;SDS011;56190;43.562;5.036;2023-10-19T14:21:15;25.83;;;4.90;;
69087;SDS011;56190;43.562;5.036;2023-10-19T14:23:40;26.92;;;5.15;;
69087;SDS011;56190;43.562;5.036;2023-10-19T14:26:06;20.95;;;4.80;;
69087;SDS011;56190;43.562;5.036;2023-10-19T14:28:31;26.50;;;4.95;;
69087;SDS011;56190;43.562;5.036;2023-10-19T14:30:56;26.23;;;5.03;;
69087;SDS011;56190;43.562;5.036;2023-10-19T14:33:22;24.55;;;4.32;;
69087;SDS011;56190;43.562;5.036;2023-10-19T14:35:47;25.40;;;4.90;;
69087;SDS011;56190;43.562;5.036;2023-10-19T14:38:12;19.98;;;4.20;;
69087;SDS011;56190;43.562;5.036;2023-10-19T14:40:39;22.65;;;4.35;;
69087;SDS011;56190;43.562;5.036;2023-10-19T14:43:10;22.00;;;4.00;;
69087;SDS011;56190;43.562;5.036;2023-10-19T14:45:35;26.40;;;4.60;;
69087;SDS011;56190;43.562;5.036;2023-10-19T14:48:01;22.35;;;4.35;;
69087;SDS011;56190;43.562;5.036;2023-10-19T14:50:33;22.48;;;5.00;;
69087;SDS011;56190;43.562;5.036;2023-10-19T14:53:00;24.98;;;4.78;;
69087;SDS011;56190;43.562;5.036;2023-10-19T14:55:25;23.65;;;4.68;;